Home > Products > Valid Products > TAF

000
FTUS41 KLWX 030900 AAA
TAFBWI
TAF AMD
KBWI 030900Z 0309/0412 34004KT P6SM OVC250
     FM031300 VRB03KT P6SM BKN050
     FM031800 14006KT 4SM -SNPL OVC020
     FM032100 13008KT 1 1/2SM -FZRA BR OVC015
     FM040000 15009KT 2SM BR OVC007
      TEMPO 0400/0403 1SM -FZRA BR
     FM040300 22007KT 1 1/2SM BR OVC004=



000
FTUS41 KLWX 030900 AAA
TAFDCA
TAF AMD
KDCA 030900Z 0309/0406 01005KT P6SM OVC250
     FM031500 15007KT P6SM OVC080
     FM031700 16007KT 6SM BR OVC040
      TEMPO 0317/0321 5SM -SNPL OVC030
     FM032100 17007KT 2SM BR OVC015
      TEMPO 0321/0324 2SM -RA BR=



000
FTUS41 KLWX 030859 AAA
TAFIAD
TAF AMD
KIAD 030859Z 0309/0412 03003KT P6SM OVC250
     FM031400 15005KT P6SM BKN050
     FM031700 17007KT 4SM -SNPL OVC020
     FM032100 16010KT 2SM BR OVC007
      TEMPO 0321/0324 1SM -FZRA
     FM040300 20010KT 1 1/2SM BR OVC004=



000
FTUS41 KLWX 030540 RRA
TAFMTN
TAF
KMTN 030540Z 0306/0406 NIL=



000
FTUS41 KLWX 030540 RRA
TAFMTN
TAF
KMTN 030540Z 0306/0406 NIL=



000
FTUS41 KLWX 030540 RRA
TAFMRB
TAF
KMRB 030540Z 0306/0406 35003KT P6SM SKC
     FM031600 14005KT 2SM -SN OVC040
     FM031800 13005KT 1 1/2SM -FZRAPL BR OVC015
     FM032000 15006KT 1 1/2SM -FZRA BR OVC007
     FM040400 22006KT 4SM BR OVC012=



000
FTUS41 KLWX 030540 RRA
TAFIAD
TAF
KIAD 030540Z 0306/0412 02003KT P6SM FEW250
     FM031400 15005KT P6SM BKN050
     FM031600 17007KT 4SM -SNPL OVC020
     FM032100 16010KT 2SM BR OVC007
      TEMPO 0321/0324 1SM -FZRA
     FM040300 20010KT 1 1/2SM BR OVC004=



000
FTUS41 KLWX 030540 RRA
TAFMRB
TAF
KMRB 030540Z 0306/0406 35003KT P6SM SKC
     FM031600 14005KT 2SM -SN OVC040
     FM031800 13005KT 1 1/2SM -FZRAPL BR OVC015
     FM032000 15006KT 1 1/2SM -FZRA BR OVC007
     FM040400 22006KT 4SM BR OVC012=



000
FTUS41 KLWX 030540 RRA
TAFIAD
TAF
KIAD 030540Z 0306/0412 02003KT P6SM FEW250
     FM031400 15005KT P6SM BKN050
     FM031600 17007KT 4SM -SNPL OVC020
     FM032100 16010KT 2SM BR OVC007
      TEMPO 0321/0324 1SM -FZRA
     FM040300 20010KT 1 1/2SM BR OVC004=



000
FTUS41 KLWX 030540 RRA
TAFBWI
TAF
KBWI 030540Z 0306/0412 34004KT P6SM FEW250
     FM031300 VRB03KT P6SM BKN050
     FM031800 14006KT 4SM -SNPL OVC020
     FM032100 13008KT 1 1/2SM -FZRA BR OVC015
     FM040000 15009KT 2SM BR OVC007
      TEMPO 0400/0403 1SM -FZRA BR
     FM040300 22007KT 1 1/2SM BR OVC004=



000
FTUS41 KLWX 030540 RRA
TAFBWI
TAF
KBWI 030540Z 0306/0412 34004KT P6SM FEW250
     FM031300 VRB03KT P6SM BKN050
     FM031800 14006KT 4SM -SNPL OVC020
     FM032100 13008KT 1 1/2SM -FZRA BR OVC015
     FM040000 15009KT 2SM BR OVC007
      TEMPO 0400/0403 1SM -FZRA BR
     FM040300 22007KT 1 1/2SM BR OVC004=



000
FTUS41 KLWX 030540 RRA
TAFDCA
TAF
KDCA 030540Z 0306/0406 01015KT P6SM FEW250
     FM031500 15007KT P6SM OVC080
     FM031700 16007KT 6SM BR OVC040
      TEMPO 0317/0321 5SM -SNPL OVC030
     FM032100 17007KT 2SM BR OVC015
      TEMPO 0321/0324 2SM -RA BR=



000
FTUS41 KLWX 030540 RRA
TAFCHO
TAF
KCHO 030540Z 0306/0406 00000KT P6SM SKC
     FM031600 16005KT 3SM -SNPL OVC050
     FM031700 19009KT 4SM BR OVC025
      TEMPO 0317/0321 4SM -FZRA OVC025
     FM032100 19011KT 4SM BR OVC015
      TEMPO 0321/0324 4SM -FZDZ OVC008=



000
FTUS41 KLWX 030540 RRA
TAFCHO
TAF
KCHO 030540Z 0306/0406 00000KT P6SM SKC
     FM031600 16005KT 3SM -SNPL OVC050
     FM031700 19009KT 4SM BR OVC025
      TEMPO 0317/0321 4SM -FZRA OVC025
     FM032100 19011KT 4SM BR OVC015
      TEMPO 0321/0324 4SM -FZDZ OVC008=



000
FTUS41 KLWX 030540 RRA
TAFDCA
TAF
KDCA 030540Z 0306/0406 01015KT P6SM FEW250
     FM031500 15007KT P6SM OVC080
     FM031700 16007KT 6SM BR OVC040
      TEMPO 0317/0321 5SM -SNPL OVC030
     FM032100 17007KT 2SM BR OVC015
      TEMPO 0321/0324 2SM -RA BR=



000
FTUS41 KLWX 022329
TAFBWI
TAF
KBWI 022329Z 0300/0406 30009G18KT P6SM FEW180 SCT250
     FM031300 VRB03KT P6SM BKN050
     FM031800 14006KT 4SM -SNPL OVC020
     FM032100 13008KT 1 1/2SM -FZRA BR OVC015
     FM040000 15009KT 1 1/2SM BR OVC007
      TEMPO 0400/0403 1 1/2SM -FZRA BR
     FM040300 22007KT 1 1/2SM BR OVC004=



000
FTUS41 KLWX 022329
TAFIAD
TAF
KIAD 022329Z 0300/0406 35011KT P6SM FEW250
     FM031500 15005KT P6SM BKN050
     FM031800 18007KT 4SM -SNPL OVC020
     FM032100 16010KT 1 1/2SM BR OVC007
      TEMPO 0321/0324 1 1/2SM -FZRA
     FM040300 20010KT 1 1/2SM BR OVC004=



000
FTUS41 KLWX 022329
TAFDCA
TAF
KDCA 022329Z 0300/0324 34014KT P6SM FEW250
     FM031600 15007KT P6SM OVC080
     FM031800 16007KT 6SM BR OVC050
      TEMPO 0318/0321 5SM -SN OVC030
     FM032100 17007KT 2SM BR OVC015
      TEMPO 0321/0324 2SM -RA BR=



000
FTUS41 KLWX 022329
TAFCHO
TAF
KCHO 022329Z 0300/0324 02004KT P6SM SKC
     FM031500 16005KT P6SM OVC050
     FM031800 19009KT 4SM BR OVC025
      TEMPO 0318/0321 4SM -FZRA OVC025
     FM032100 19011KT 4SM BR OVC015
      TEMPO 0321/0324 4SM -FZDZ OVC015=



000
FTUS41 KLWX 022329
TAFMTN
TAF
KMTN 022329Z 0300/0324 30020G24KT P6SM SCT050 SCT200
     FM030500 31008KT P6SM SCT200
     FM031600 12004KT P6SM BKN050
     FM031800 12003KT 2SM -SN OVC100
     FM032100 12006KT 1SM -FZRA BR OVC007=



000
FTUS41 KLWX 022329
TAFMRB
TAF
KMRB 022329Z 0300/0324 30007KT P6SM SKC
     FM031600 14005KT 4SM -SN OVC050
     FM031800 13005KT 1 1/2SM -FZRA BR OVC015
     FM032100 15006KT 1 1/2SM -FZRA BR OVC007=



000
FTUS41 KLWX 022104 AAB
TAFIAD
TAF AMD
KIAD 022104Z 0221/0324 33013KT P6SM SCT250
     FM022200 31004KT P6SM FEW200
     FM031500 15005KT P6SM BKN050
     FM031800 18007KT 4SM -SNPL OVC020=



000
FTUS41 KLWX 022104 AAA
TAFDCA
TAF AMD
KDCA 022104Z 0221/0318 34015KT P6SM FEW250
     FM022300 VRB04KT P6SM BKN150
     FM031600 15007KT P6SM OVC080=



000
FTUS41 KLWX 022104 AAA
TAFBWI
TAF AMD
KBWI 022104Z 0221/0324 30014KT P6SM SCT250
     FM022200 31005KT P6SM SCT200
     FM031300 VRB03KT P6SM BKN050
     FM031800 14006KT 4SM -SNPL OVC020=



000
FTUS41 KLWX 022104 AAB
TAFIAD
TAF AMD
KIAD 022104Z 0221/0324 33013KT P6SM SCT250
     FM022200 31004KT P6SM FEW200
     FM031500 15005KT P6SM BKN050
     FM031800 18007KT 4SM -SNPL OVC020=



000
FTUS41 KLWX 022104 AAA
TAFBWI
TAF AMD
KBWI 022104Z 0221/0324 30014KT P6SM SCT250
     FM022200 31005KT P6SM SCT200
     FM031300 VRB03KT P6SM BKN050
     FM031800 14006KT 4SM -SNPL OVC020=



000
FTUS41 KLWX 022104 AAA
TAFDCA
TAF AMD
KDCA 022104Z 0221/0318 34015KT P6SM FEW250
     FM022300 VRB04KT P6SM BKN150
     FM031600 15007KT P6SM OVC080=



000
FTUS41 KLWX 022019 AAA
TAFIAD
TAF AMD
KIAD 022019Z 0220/0324 33013G23KT P6SM SCT250
     FM022200 31004KT P6SM FEW200
     FM031500 15005KT P6SM BKN050
     FM031800 18007KT 4SM -SNPL OVC020=



000
FTUS41 KLWX 021736
TAFDCA
TAF
KDCA 021736Z 0218/0318 33016G23KT P6SM FEW045 SCT250
     FM022300 VRB04KT P6SM BKN150
     FM031600 15007KT P6SM OVC080=



000
FTUS41 KLWX 021736
TAFMTN
TAF
KMTN 021736Z 0218/0318 30020G24KT P6SM SCT050 SCT200
     FM030000 31008KT P6SM SCT200
     FM031600 12004KT P6SM BKN150=



000
FTUS41 KLWX 021736
TAFIAD
TAF
KIAD 021736Z 0218/0324 32020G26KT P6SM FEW035 SCT250
     FM022200 31004KT P6SM FEW200
     FM031500 15005KT P6SM BKN050
     FM031800 18007KT 4SM -SNPL OVC020=



000
FTUS41 KLWX 021736
TAFBWI
TAF
KBWI 021736Z 0218/0324 29015G25KT P6SM SCT045 SCT200
     FM022200 31005KT P6SM SCT200
     FM031300 VRB03KT P6SM BKN050
     FM031800 14006KT 4SM -SNPL OVC020=



000
FTUS41 KLWX 021736
TAFCHO
TAF
KCHO 021736Z 0218/0318 01006KT P6SM FEW200
     FM022300 31008KT P6SM BKN200
     FM031500 16005KT P6SM OVC050=



000
FTUS41 KLWX 021736
TAFMTN
TAF
KMTN 021736Z 0218/0318 30020G24KT P6SM SCT050 SCT200
     FM030000 31008KT P6SM SCT200
     FM031600 12004KT P6SM BKN150=



000
FTUS41 KLWX 021736
TAFDCA
TAF
KDCA 021736Z 0218/0318 33016G23KT P6SM FEW045 SCT250
     FM022300 VRB04KT P6SM BKN150
     FM031600 15007KT P6SM OVC080=



000
FTUS41 KLWX 021736
TAFBWI
TAF
KBWI 021736Z 0218/0324 29015G25KT P6SM SCT045 SCT200
     FM022200 31005KT P6SM SCT200
     FM031300 VRB03KT P6SM BKN050
     FM031800 14006KT 4SM -SNPL OVC020=



000
FTUS41 KLWX 021736
TAFIAD
TAF
KIAD 021736Z 0218/0324 32020G26KT P6SM FEW035 SCT250
     FM022200 31004KT P6SM FEW200
     FM031500 15005KT P6SM BKN050
     FM031800 18007KT 4SM -SNPL OVC020=



000
FTUS41 KLWX 021736
TAFMRB
TAF
KMRB 021736Z 0218/0318 30017G25KT P6SM FEW200
     FM022300 31008KT P6SM BKN200
     FM031600 14005KT 4SM -SN OVC050=



000
FTUS41 KLWX 021736
TAFCHO
TAF
KCHO 021736Z 0218/0318 01006KT P6SM FEW200
     FM022300 31008KT P6SM BKN200
     FM031500 16005KT P6SM OVC050=



000
FTUS41 KLWX 021736
TAFMRB
TAF
KMRB 021736Z 0218/0318 30017G25KT P6SM FEW200
     FM022300 31008KT P6SM BKN200
     FM031600 14005KT 4SM -SN OVC050=



000
FTUS41 KLWX 021504 AAB
TAFBWI
TAF AMD
KBWI 021504Z 0215/0318 31012G19KT P6SM FEW045 SCT150
     FM030000 31008KT P6SM SCT200
     FM031300 VRB03KT P6SM BKN050=



000
FTUS41 KLWX 021504 AAA
TAFIAD
TAF AMD
KIAD 021504Z 0215/0318 32020G30KT P6SM SCT035 SCT200
     FM022300 31008KT P6SM SCT200
     FM031500 15007KT P6SM BKN050=



000
FTUS41 KLWX 021504 AAB
TAFDCA
TAF AMD
KDCA 021504Z 0215/0312 VRB04KT P6SM BKN045 BKN250
     FM021600 32015G22KT P6SM SCT050 SCT200
     FM030000 VRB04KT P6SM BKN150
     FM031100 12005KT P6SM OVC080=



000
FTUS41 KLWX 021504 AAA
TAFIAD
TAF AMD
KIAD 021504Z 0215/0318 32020G30KT P6SM SCT035 SCT200
     FM022300 31008KT P6SM SCT200
     FM031500 15007KT P6SM BKN050=



000
FTUS41 KLWX 021504 AAB
TAFDCA
TAF AMD
KDCA 021504Z 0215/0312 VRB04KT P6SM BKN045 BKN250
     FM021600 32015G22KT P6SM SCT050 SCT200
     FM030000 VRB04KT P6SM BKN150
     FM031100 12005KT P6SM OVC080=



000
FTUS41 KLWX 021504 AAB
TAFBWI
TAF AMD
KBWI 021504Z 0215/0318 31012G19KT P6SM FEW045 SCT150
     FM030000 31008KT P6SM SCT200
     FM031300 VRB03KT P6SM BKN050=



000
FTUS41 KLWX 021312 AAA
TAFBWI
TAF AMD
KBWI 021312Z 0213/0318 27003KT 5SM BR FEW009 BKN050 BKN150
     FM021400 31013G25KT P6SM BKN050
     FM030000 31008KT P6SM SCT200
     FM030600 VRB04KT P6SM BKN150
     FM031700 15010KT P6SM BKN050=



000
FTUS41 KLWX 021312 AAA
TAFDCA
TAF AMD
KDCA 021312Z 0213/0312 02004KT 4SM BR BKN045 OVC060
     FM021400 31011G23KT P6SM BKN045
     FM022300 31008KT P6SM SCT200
     FM030600 VRB04KT P6SM BKN150=



000
FTUS41 KLWX 021312 AAA
TAFDCA
TAF AMD
KDCA 021312Z 0213/0312 02004KT 4SM BR BKN045 OVC060
     FM021400 31011G23KT P6SM BKN045
     FM022300 31008KT P6SM SCT200
     FM030600 VRB04KT P6SM BKN150=



000
FTUS41 KLWX 021139
TAFBWI
TAF
KBWI 021139Z 0212/0318 25004KT 2SM BR SCT008 BKN045
     FM021400 31013G25KT P6SM BKN045
     FM030000 31008KT P6SM SCT200
     FM030600 VRB04KT P6SM BKN150
     FM031700 15010KT P6SM BKN050=



000
FTUS41 KLWX 021139
TAFMRB
TAF
KMRB 021139Z 0212/0312 30008G16KT P6SM SCT035 BKN150
     FM021500 31013G22KT P6SM SCT200
     FM022300 31008KT P6SM BKN200
     FM030600 VRB04KT P6SM BKN150=



000
FTUS41 KLWX 021139
TAFCHO
TAF
KCHO 021139Z 0212/0312 20004KT 3SM BR SCT008 SCT100
     FM021300 30006KT P6SM SCT100
     FM021500 31008G16KT P6SM SCT200
     FM022300 31008KT P6SM BKN200
     FM030300 VRB04KT P6SM BKN150=



000
FTUS41 KLWX 021139
TAFMRB
TAF
KMRB 021139Z 0212/0312 30008G16KT P6SM SCT035 BKN150
     FM021500 31013G22KT P6SM SCT200
     FM022300 31008KT P6SM BKN200
     FM030600 VRB04KT P6SM BKN150=



000
FTUS41 KLWX 021139
TAFCHO
TAF
KCHO 021139Z 0212/0312 20004KT 3SM BR SCT008 SCT100
     FM021300 30006KT P6SM SCT100
     FM021500 31008G16KT P6SM SCT200
     FM022300 31008KT P6SM BKN200
     FM030300 VRB04KT P6SM BKN150=



000
FTUS41 KLWX 021139
TAFIAD
TAF
KIAD 021139Z 0212/0318 27005KT 2SM BR SCT002 BKN035
     FM021300 32010KT P6SM BKN035
     FM021400 31012G23KT P6SM SCT045 SCT250
     FM022300 31008KT P6SM SCT200
     FM030600 VRB04KT P6SM BKN150
     FM031500 15010KT P6SM BKN050=



000
FTUS41 KLWX 021139
TAFMTN
TAF
KMTN 021139Z 0212/0312 25004KT 2SM BR SCT008 BKN045
     FM021400 31013G25KT P6SM BKN045
     FM030000 31008KT P6SM SCT200
     FM030600 VRB04KT P6SM BKN150=



000
FTUS41 KLWX 021139
TAFDCA
TAF
KDCA 021139Z 0212/0312 30008KT 3SM BR BKN006 OVC045
     FM021400 31011G23KT P6SM BKN045
     FM022300 31008KT P6SM SCT200
     FM030600 VRB04KT P6SM BKN150=



000
FTUS41 KLWX 021139
TAFBWI
TAF
KBWI 021139Z 0212/0318 25004KT 2SM BR SCT008 BKN045
     FM021400 31013G25KT P6SM BKN045
     FM030000 31008KT P6SM SCT200
     FM030600 VRB04KT P6SM BKN150
     FM031700 15010KT P6SM BKN050=



000
FTUS41 KLWX 021139
TAFIAD
TAF
KIAD 021139Z 0212/0318 27005KT 2SM BR SCT002 BKN035
     FM021300 32010KT P6SM BKN035
     FM021400 31012G23KT P6SM SCT045 SCT250
     FM022300 31008KT P6SM SCT200
     FM030600 VRB04KT P6SM BKN150
     FM031500 15010KT P6SM BKN050=



000
FTUS41 KLWX 021139
TAFMTN
TAF
KMTN 021139Z 0212/0312 25004KT 2SM BR SCT008 BKN045
     FM021400 31013G25KT P6SM BKN045
     FM030000 31008KT P6SM SCT200
     FM030600 VRB04KT P6SM BKN150=



000
FTUS41 KLWX 021139
TAFDCA
TAF
KDCA 021139Z 0212/0312 30008KT 3SM BR BKN006 OVC045
     FM021400 31011G23KT P6SM BKN045
     FM022300 31008KT P6SM SCT200
     FM030600 VRB04KT P6SM BKN150=



000
FTUS41 KLWX 021022 AAB
TAFIAD
TAF AMD
KIAD 021022Z 0210/0312 25006KT 1/4SM FG OVC002
     FM021300 29004KT 1SM BR BKN006 OVC050
     FM021400 29004KT P6SM SCT006 BKN045
     FM021600 31012G25KT P6SM SCT045 SCT250
     FM030000 31008KT P6SM SCT200
     FM030600 VRB04KT P6SM BKN200=



000
FTUS41 KLWX 020842 AAA
TAFDCA
TAF AMD
KDCA 020842Z 0209/0306 25006KT 1/4SM FG OVC002
     FM021100 29004KT 1SM BR BKN006 OVC050
     FM021200 30008KT P6SM SCT006 OVC045
     FM021400 31011G23KT P6SM BKN045
     FM030000 31008KT P6SM SCT200=



000
FTUS41 KLWX 020842 AAA
TAFIAD
TAF AMD
KIAD 020842Z 0209/0312 25006KT 1/4SM FG OVC002
     FM021100 29004KT 1SM BR BKN006 OVC050
     FM021200 29004KT P6SM SCT006 OVC045
     FM021300 31009KT P6SM BKN045
     FM021800 31012G25KT P6SM SCT250
     FM030000 31008KT P6SM SCT200
     FM030600 VRB04KT P6SM BKN200=



000
FTUS41 KLWX 020842 AAA
TAFBWI
TAF AMD
KBWI 020842Z 0209/0312 26006KT 1/2SM FG OVC004
     FM021100 29004KT 1SM BR BKN006 OVC050
     FM021200 31011KT P6SM SCT008 BKN045
     FM021500 31013G25KT P6SM BKN045
     FM030000 31008KT P6SM SCT200
     FM030600 VRB04KT P6SM BKN200=



000
FTUS41 KLWX 020842 AAA
TAFBWI
TAF AMD
KBWI 020842Z 0209/0312 26006KT 1/2SM FG OVC004
     FM021100 29004KT 1SM BR BKN006 OVC050
     FM021200 31011KT P6SM SCT008 BKN045
     FM021500 31013G25KT P6SM BKN045
     FM030000 31008KT P6SM SCT200
     FM030600 VRB04KT P6SM BKN200=



000
FTUS41 KLWX 020842 AAA
TAFIAD
TAF AMD
KIAD 020842Z 0209/0312 25006KT 1/4SM FG OVC002
     FM021100 29004KT 1SM BR BKN006 OVC050
     FM021200 29004KT P6SM SCT006 OVC045
     FM021300 31009KT P6SM BKN045
     FM021800 31012G25KT P6SM SCT250
     FM030000 31008KT P6SM SCT200
     FM030600 VRB04KT P6SM BKN200=



000
FTUS41 KLWX 020842 AAA
TAFDCA
TAF AMD
KDCA 020842Z 0209/0306 25006KT 1/4SM FG OVC002
     FM021100 29004KT 1SM BR BKN006 OVC050
     FM021200 30008KT P6SM SCT006 OVC045
     FM021400 31011G23KT P6SM BKN045
     FM030000 31008KT P6SM SCT200=



000
FTUS41 KLWX 020536
TAFCHO
TAF
KCHO 020536Z 0206/0306 20006KT 2SM BR BKN003 OVC035
     FM021100 28004KT P6SM SCT008 BKN070
     FM021500 31010G16KT P6SM SCT200
     FM022300 31008KT P6SM BKN200=



000
FTUS41 KLWX 020536
TAFDCA
TAF
KDCA 020536Z 0206/0306 19004KT 1/2SM FG OVC002
     FM020800 25006KT P6SM OVC006
     FM021100 30008KT P6SM SCT006 OVC045
     FM021400 31011G23KT P6SM SCT150
     FM030000 31008KT P6SM SCT200=



000
FTUS41 KLWX 020536
TAFMTN
TAF
KMTN 020536Z 0206/0306 NIL=



000
FTUS41 KLWX 020536
TAFMRB
TAF
KMRB 020536Z 0206/0306 29004KT P6SM SCT007 BKN035
     FM021200 30008KT P6SM BKN060
     FM021500 31013G22KT P6SM SCT200
     FM022300 31008KT P6SM BKN200=



000
FTUS41 KLWX 020536
TAFIAD
TAF
KIAD 020536Z 0206/0312 26004KT 1/2SM FG OVC002
     FM020900 25006KT P6SM OVC006
     FM021100 29004KT P6SM OVC050
     FM021300 31009KT P6SM BKN150
     FM021800 31012G25KT P6SM SCT250
     FM030000 31008KT P6SM SCT200
     FM030600 VRB04KT P6SM BKN200=



000
FTUS41 KLWX 020536
TAFMRB
TAF
KMRB 020536Z 0206/0306 29004KT P6SM SCT007 BKN035
     FM021200 30008KT P6SM BKN060
     FM021500 31013G22KT P6SM SCT200
     FM022300 31008KT P6SM BKN200=



000
FTUS41 KLWX 020536
TAFDCA
TAF
KDCA 020536Z 0206/0306 19004KT 1/2SM FG OVC002
     FM020800 25006KT P6SM OVC006
     FM021100 30008KT P6SM SCT006 OVC045
     FM021400 31011G23KT P6SM SCT150
     FM030000 31008KT P6SM SCT200=



000
FTUS41 KLWX 020536
TAFCHO
TAF
KCHO 020536Z 0206/0306 20006KT 2SM BR BKN003 OVC035
     FM021100 28004KT P6SM SCT008 BKN070
     FM021500 31010G16KT P6SM SCT200
     FM022300 31008KT P6SM BKN200=



000
FTUS41 KLWX 020536
TAFBWI
TAF
KBWI 020536Z 0206/0312 26003KT 1/2SM FG OVC002
     FM020900 26006KT P6SM OVC008
     FM021200 31011KT P6SM SCT008 BKN140
     FM021500 31013G25KT P6SM SCT150
     FM030000 31008KT P6SM SCT200
     FM030600 VRB04KT P6SM BKN200=



000
FTUS41 KLWX 020536
TAFMTN
TAF
KMTN 020536Z 0206/0306 NIL=



000
FTUS41 KLWX 020536
TAFIAD
TAF
KIAD 020536Z 0206/0312 26004KT 1/2SM FG OVC002
     FM020900 25006KT P6SM OVC006
     FM021100 29004KT P6SM OVC050
     FM021300 31009KT P6SM BKN150
     FM021800 31012G25KT P6SM SCT250
     FM030000 31008KT P6SM SCT200
     FM030600 VRB04KT P6SM BKN200=



000
FTUS41 KLWX 020536
TAFBWI
TAF
KBWI 020536Z 0206/0312 26003KT 1/2SM FG OVC002
     FM020900 26006KT P6SM OVC008
     FM021200 31011KT P6SM SCT008 BKN140
     FM021500 31013G25KT P6SM SCT150
     FM030000 31008KT P6SM SCT200
     FM030600 VRB04KT P6SM BKN200=



000
FTUS41 KLWX 020504 AAB
TAFDCA
TAF AMD
KDCA 020504Z 0205/0224 19004KT 1/2SM FG OVC002
     FM020800 25006KT P6SM OVC006
     FM021100 30008KT P6SM OVC045
     FM021400 31011G18KT P6SM SCT150=



000
FTUS41 KLWX 020504 AAB
TAFDCA
TAF AMD
KDCA 020504Z 0205/0224 19004KT 1/2SM FG OVC002
     FM020800 25006KT P6SM OVC006
     FM021100 30008KT P6SM OVC045
     FM021400 31011G18KT P6SM SCT150=



000
FTUS41 KLWX 020403 AAB
TAFIAD
TAF AMD
KIAD 020403Z 0204/0306 19004KT 1SM BR OVC002
     FM020600 26004KT P6SM SCT005 OVC020
     FM021000 29004KT P6SM OVC050
     FM021300 31009KT P6SM BKN150
     FM021800 31012G20KT P6SM SCT250
     FM030100 31008KT P6SM FEW200=



000
FTUS41 KLWX 020340 AAA
TAFBWI
TAF AMD
KBWI 020340Z 0204/0306 26003KT 6SM BR OVC005
     FM020700 26006KT P6SM OVC008
     FM021000 29007KT P6SM OVC040
     FM021300 31011KT P6SM BKN140
     FM021500 31013G21KT P6SM SCT150
     FM030100 31008KT P6SM FEW200=



000
FTUS41 KLWX 020340 AAA
TAFBWI
TAF AMD
KBWI 020340Z 0204/0306 26003KT 6SM BR OVC005
     FM020700 26006KT P6SM OVC008
     FM021000 29007KT P6SM OVC040
     FM021300 31011KT P6SM BKN140
     FM021500 31013G21KT P6SM SCT150
     FM030100 31008KT P6SM FEW200=



000
FTUS41 KLWX 020339 AAA
TAFDCA
TAF AMD
KDCA 020339Z 0204/0224 19004KT P6SM OVC004
     FM020600 25006KT P6SM OVC006
     FM021000 28006KT P6SM OVC045
     FM021400 31011G18KT P6SM SCT150=



000
FTUS41 KLWX 020339 AAA
TAFDCA
TAF AMD
KDCA 020339Z 0204/0224 19004KT P6SM OVC004
     FM020600 25006KT P6SM OVC006
     FM021000 28006KT P6SM OVC045
     FM021400 31011G18KT P6SM SCT150=



000
FTUS41 KLWX 020305 AAA
TAFCHO
TAF AMD
KCHO 020305Z 0203/0224 20009KT 2SM BR OVC003
     FM020600 21006KT P6SM SCT005 OVC035
     FM021100 28004KT P6SM BKN070
     FM021500 31008KT P6SM SCT200=



000
FTUS41 KLWX 020305 AAA
TAFCHO
TAF AMD
KCHO 020305Z 0203/0224 20009KT 2SM BR OVC003
     FM020600 21006KT P6SM SCT005 OVC035
     FM021100 28004KT P6SM BKN070
     FM021500 31008KT P6SM SCT200=



000
FTUS41 KLWX 020304 AAA
TAFIAD
TAF AMD
KIAD 020304Z 0203/0306 20003KT 4SM BR OVC003
     FM020600 26004KT P6SM SCT005 OVC020
     FM021000 29004KT P6SM OVC050
     FM021300 31009KT P6SM BKN150
     FM021800 31012G20KT P6SM SCT250
     FM030100 31008KT P6SM FEW200=



000
FTUS41 KLWX 020304 AAA
TAFIAD
TAF AMD
KIAD 020304Z 0203/0306 20003KT 4SM BR OVC003
     FM020600 26004KT P6SM SCT005 OVC020
     FM021000 29004KT P6SM OVC050
     FM021300 31009KT P6SM BKN150
     FM021800 31012G20KT P6SM SCT250
     FM030100 31008KT P6SM FEW200=



000
FTUS41 KLWX 020111 AAA
TAFMRB
TAF AMD
KMRB 020111Z 0201/0224 VRB03KT 5SM BR SCT005 OVC030
     FM020500 29004KT P6SM BKN035
     FM021200 30008KT P6SM BKN060
     FM021500 31013G22KT P6SM SCT200=



000
FTUS41 KLWX 020111 AAA
TAFMRB
TAF AMD
KMRB 020111Z 0201/0224 VRB03KT 5SM BR SCT005 OVC030
     FM020500 29004KT P6SM BKN035
     FM021200 30008KT P6SM BKN060
     FM021500 31013G22KT P6SM SCT200=



000
FTUS41 KLWX 012332
TAFDCA
TAF
KDCA 012332Z 0200/0224 18007KT 5SM -FZRA BR OVC008
     FM020100 24006KT 6SM -FZDZ SCT007 OVC008
     FM020600 25006KT P6SM OVC008
     FM021000 28006KT P6SM OVC045
     FM021400 31011G18KT P6SM SCT150=



000
FTUS41 KLWX 012332
TAFIAD
TAF
KIAD 012332Z 0200/0306 20004KT 6SM -FZRA BR OVC006
     FM020100 22004KT 6SM -FZDZ SCT007 OVC020
     FM020600 26004KT P6SM OVC020
     FM021000 29004KT P6SM OVC050
     FM021300 31009KT P6SM BKN150
     FM021800 31012G20KT P6SM SCT250
     FM030100 31008KT P6SM FEW200=



000
FTUS41 KLWX 012332
TAFBWI
TAF
KBWI 012332Z 0200/0306 14003KT 4SM -FZRA BR OVC007
     FM020300 21006KT 6SM -FZDZ SCT005 OVC008
     FM020700 26006KT P6SM OVC008
     FM021000 29007KT P6SM OVC040
     FM021300 31011KT P6SM BKN140
     FM021500 31013G21KT P6SM SCT150
     FM030100 31008KT P6SM FEW200=



000
FTUS41 KLWX 012332
TAFCHO
TAF
KCHO 012332Z 0200/0224 18006KT P6SM -RA BKN005 OVC045
     FM020200 21006KT P6SM OVC035
     FM021100 28004KT P6SM BKN070
     FM021500 31008KT P6SM SCT200=



000
FTUS41 KLWX 012332
TAFMTN
TAF
KMTN 012332Z 0200/0224 14006KT 4SM -FZRA OVC005
     FM020100 19006KT 3SM -FZRA BKN009 OVC015
     FM020500 23006KT 4SM -FZDZ SCT011 OVC020
     FM020700 28007KT P6SM SCT020 OVC050
     FM021300 31011KT P6SM BKN140
     FM021600 31014G22KT P6SM SCT250
      AMD NOT SKED 0202/0212=



000
FTUS41 KLWX 012332
TAFMRB
TAF
KMRB 012332Z 0200/0224 09003KT 3SM -FZDZ BR OVC005
     FM020200 VRB03KT 5SM -FZDZ BR SCT005 OVC020
     FM020500 29004KT P6SM BKN035
     FM021200 30008KT P6SM BKN060
     FM021500 31013G22KT P6SM SCT200=



000
FTUS41 KLWX 012332
TAFDCA
TAF
KDCA 012332Z 0200/0224 18007KT 5SM -FZRA BR OVC008
     FM020100 24006KT 6SM -FZDZ SCT007 OVC008
     FM020600 25006KT P6SM OVC008
     FM021000 28006KT P6SM OVC045
     FM021400 31011G18KT P6SM SCT150=



000
FTUS41 KLWX 012332
TAFIAD
TAF
KIAD 012332Z 0200/0306 20004KT 6SM -FZRA BR OVC006
     FM020100 22004KT 6SM -FZDZ SCT007 OVC020
     FM020600 26004KT P6SM OVC020
     FM021000 29004KT P6SM OVC050
     FM021300 31009KT P6SM BKN150
     FM021800 31012G20KT P6SM SCT250
     FM030100 31008KT P6SM FEW200=



000
FTUS41 KLWX 012332
TAFCHO
TAF
KCHO 012332Z 0200/0224 18006KT P6SM -RA BKN005 OVC045
     FM020200 21006KT P6SM OVC035
     FM021100 28004KT P6SM BKN070
     FM021500 31008KT P6SM SCT200=



000
FTUS41 KLWX 012332
TAFMRB
TAF
KMRB 012332Z 0200/0224 09003KT 3SM -FZDZ BR OVC005
     FM020200 VRB03KT 5SM -FZDZ BR SCT005 OVC020
     FM020500 29004KT P6SM BKN035
     FM021200 30008KT P6SM BKN060
     FM021500 31013G22KT P6SM SCT200=



000
FTUS41 KLWX 012332
TAFMTN
TAF
KMTN 012332Z 0200/0224 14006KT 4SM -FZRA OVC005
     FM020100 19006KT 3SM -FZRA BKN009 OVC015
     FM020500 23006KT 4SM -FZDZ SCT011 OVC020
     FM020700 28007KT P6SM SCT020 OVC050
     FM021300 31011KT P6SM BKN140
     FM021600 31014G22KT P6SM SCT250
      AMD NOT SKED 0202/0212=



000
FTUS41 KLWX 012332
TAFBWI
TAF
KBWI 012332Z 0200/0306 14003KT 4SM -FZRA BR OVC007
     FM020300 21006KT 6SM -FZDZ SCT005 OVC008
     FM020700 26006KT P6SM OVC008
     FM021000 29007KT P6SM OVC040
     FM021300 31011KT P6SM BKN140
     FM021500 31013G21KT P6SM SCT150
     FM030100 31008KT P6SM FEW200=



000
FTUS41 KLWX 012234 AAA
TAFMRB
TAF AMD
KMRB 012234Z 0123/0218 00000KT 3SM -FZDZ BR BKN005 OVC050
     FM021200 32008KT P6SM SCT003 BKN050
     FM021400 32012G22KT P6SM SCT050=



000
FTUS41 KLWX 012106 AAA
TAFBWI
TAF AMD
KBWI 012106Z 0121/0224 19003KT 4SM -FZRA BR BKN007 OVC011
     FM020100 VRB04KT 5SM BR BKN004 OVC020
     FM021200 31008KT P6SM SCT003 BKN050
     FM021400 30012G25KT P6SM SCT050=



000
FTUS41 KLWX 012106 AAA
TAFDCA
TAF AMD
KDCA 012106Z 0121/0218 18009KT 5SM -FZRA BKN008 OVC040
     FM012300 VRB04KT 5SM BR BKN005 OVC050
     FM021200 33008KT P6SM SCT003 BKN050
     FM021400 33012G25KT P6SM SCT050=



000
FTUS41 KLWX 012106 AAA
TAFIAD
TAF AMD
KIAD 012106Z 0121/0224 18005KT 5SM -FZRA BR BKN008 OVC040
     FM012300 VRB04KT 5SM BR BKN005 OVC050
     FM021200 32008KT P6SM SCT003 BKN050
     FM021400 32012G25KT P6SM SCT050=



000
FTUS41 KLWX 011942 AAA
TAFMTN
TAF AMD
KMTN 011942Z 0120/0218 17005KT 2SM -FZRA BR BKN008 OVC020
     FM020100 VRB04KT 5SM BR BKN003 OVC020
     FM021200 31008KT P6SM SCT003 BKN050
     FM021400 30012G25KT P6SM SCT050=



000
FTUS41 KLWX 011733
TAFIAD
TAF
KIAD 011733Z 0118/0224 17007KT 5SM -FZRA BR SCT008 OVC020
     FM011900 17006KT 5SM -FZRA BKN008 OVC020
     FM012300 VRB04KT 5SM BR BKN003 OVC050
     FM021200 32008KT P6SM SCT003 BKN050
     FM021400 32012G25KT P6SM SCT050=



000
FTUS41 KLWX 011733
TAFMRB
TAF
KMRB 011733Z 0118/0218 17007KT 3SM -FZRA BR SCT008 OVC020
     FM011900 17006KT 5SM -FZRA BKN008 OVC020
     FM012200 VRB03KT 3SM BR BKN003 OVC050
     FM021200 32008KT P6SM SCT003 BKN050
     FM021400 32012G22KT P6SM SCT050=



000
FTUS41 KLWX 011733
TAFCHO
TAF
KCHO 011733Z 0118/0218 VRB04KT 5SM -FZRA BR BKN015 OVC030
     FM012100 18007KT 3SM BR BKN003 OVC050
     FM021300 34005KT P6SM SCT003 OVC050
     FM021500 35010KT P6SM SCT050=



000
FTUS41 KLWX 011733
TAFMTN
TAF
KMTN 011733Z 0118/0218 17005KT 5SM -FZRA BR BKN008 OVC020
     FM020100 VRB04KT 5SM BR BKN003 OVC020
     FM021200 31008KT P6SM SCT003 BKN050
     FM021400 30012G25KT P6SM SCT050=



000
FTUS41 KLWX 011733
TAFDCA
TAF
KDCA 011733Z 0118/0218 17007KT 5SM -FZRA BR SCT008 OVC020
     FM011900 17006KT 5SM -FZRA BKN008 OVC020
     FM012300 VRB04KT 5SM BR BKN003 OVC050
     FM021200 33008KT P6SM SCT003 BKN050
     FM021400 33012G25KT P6SM SCT050=



000
FTUS41 KLWX 011733
TAFBWI
TAF
KBWI 011733Z 0118/0224 17005KT 5SM -FZRA BR BKN008 OVC020
     FM020100 VRB04KT 5SM BR BKN003 OVC020
     FM021200 31008KT P6SM SCT003 BKN050
     FM021400 30012G25KT P6SM SCT050=



000
FTUS41 KLWX 011733
TAFCHO
TAF
KCHO 011733Z 0118/0218 VRB04KT 5SM -FZRA BR BKN015 OVC030
     FM012100 18007KT 3SM BR BKN003 OVC050
     FM021300 34005KT P6SM SCT003 OVC050
     FM021500 35010KT P6SM SCT050=



000
FTUS41 KLWX 011733
TAFDCA
TAF
KDCA 011733Z 0118/0218 17007KT 5SM -FZRA BR SCT008 OVC020
     FM011900 17006KT 5SM -FZRA BKN008 OVC020
     FM012300 VRB04KT 5SM BR BKN003 OVC050
     FM021200 33008KT P6SM SCT003 BKN050
     FM021400 33012G25KT P6SM SCT050=



000
FTUS41 KLWX 011733
TAFIAD
TAF
KIAD 011733Z 0118/0224 17007KT 5SM -FZRA BR SCT008 OVC020
     FM011900 17006KT 5SM -FZRA BKN008 OVC020
     FM012300 VRB04KT 5SM BR BKN003 OVC050
     FM021200 32008KT P6SM SCT003 BKN050
     FM021400 32012G25KT P6SM SCT050=



000
FTUS41 KLWX 011733
TAFMTN
TAF
KMTN 011733Z 0118/0218 17005KT 5SM -FZRA BR BKN008 OVC020
     FM020100 VRB04KT 5SM BR BKN003 OVC020
     FM021200 31008KT P6SM SCT003 BKN050
     FM021400 30012G25KT P6SM SCT050=



000
FTUS41 KLWX 011733
TAFMRB
TAF
KMRB 011733Z 0118/0218 17007KT 3SM -FZRA BR SCT008 OVC020
     FM011900 17006KT 5SM -FZRA BKN008 OVC020
     FM012200 VRB03KT 3SM BR BKN003 OVC050
     FM021200 32008KT P6SM SCT003 BKN050
     FM021400 32012G22KT P6SM SCT050=



000
FTUS41 KLWX 011733
TAFBWI
TAF
KBWI 011733Z 0118/0224 17005KT 5SM -FZRA BR BKN008 OVC020
     FM020100 VRB04KT 5SM BR BKN003 OVC020
     FM021200 31008KT P6SM SCT003 BKN050
     FM021400 30012G25KT P6SM SCT050=



000
FTUS41 KLWX 011503 AAA
TAFCHO
TAF AMD
KCHO 011503Z 0115/0212 VRB03KT P6SM OVC025
     FM011700 20004KT 3SM -FZRA BR BKN008 OVC020
     FM012100 18007KT 3SM BR BKN008
     FM020300 23008KT P6SM SCT015 OVC025
     FM020900 26010KT P6SM OVC050=



000
FTUS41 KLWX 011503 AAA
TAFCHO
TAF AMD
KCHO 011503Z 0115/0212 VRB03KT P6SM OVC025
     FM011700 20004KT 3SM -FZRA BR BKN008 OVC020
     FM012100 18007KT 3SM BR BKN008
     FM020300 23008KT P6SM SCT015 OVC025
     FM020900 26010KT P6SM OVC050=



000
FTUS41 KLWX 011502 AAA
TAFMRB
TAF AMD
KMRB 011502Z 0115/0212 17007KT 3SM -SNPL BKN015 OVC030
     FM011800 17007KT 2SM -FZRASNPL BR BKN008 OVC020
     FM012000 16006KT 3SM -FZRA BR BKN008 OVC020
     FM020000 VRB04KT P6SM SCT050
     FM020900 30008KT P6SM SCT050=



000
FTUS41 KLWX 011502 AAA
TAFMRB
TAF AMD
KMRB 011502Z 0115/0212 17007KT 3SM -SNPL BKN015 OVC030
     FM011800 17007KT 2SM -FZRASNPL BR BKN008 OVC020
     FM012000 16006KT 3SM -FZRA BR BKN008 OVC020
     FM020000 VRB04KT P6SM SCT050
     FM020900 30008KT P6SM SCT050=



000
FTUS41 KLWX 011501 AAA
TAFMTN
TAF AMD
KMTN 011501Z 0115/0212 VRB03KT 1SM -SN BR BKN008 OVC050
     FM011600 18005KT 3SM -FZRASNPL BR BKN015 OVC030
     FM011800 17005KT 3SM -FZRA BR BKN008 OVC020
     FM020000 17006KT 3SM BR BKN009 OVC020
     FM020600 23005KT P6SM SCT020 OVC035
     FM020900 26010KT P6SM OVC050=



000
FTUS41 KLWX 011501 AAA
TAFMTN
TAF AMD
KMTN 011501Z 0115/0212 VRB03KT 1SM -SN BR BKN008 OVC050
     FM011600 18005KT 3SM -FZRASNPL BR BKN015 OVC030
     FM011800 17005KT 3SM -FZRA BR BKN008 OVC020
     FM020000 17006KT 3SM BR BKN009 OVC020
     FM020600 23005KT P6SM SCT020 OVC035
     FM020900 26010KT P6SM OVC050=



000
FTUS41 KLWX 011500 AAA
TAFIAD
TAF AMD
KIAD 011500Z 0115/0218 17007KT 5SM -FZRAPL BR BKN015 OVC030
     FM011800 18007KT 4SM -FZRA BR BKN009 OVC020
     FM012300 18005KT 3SM BR BKN008 BKN015 OVC035
     FM020600 19005KT P6SM OVC020
     FM020900 26005KT P6SM OVC050
     FM021400 30012G25KT P6SM BKN040=



000
FTUS41 KLWX 011500 AAB
TAFDCA
TAF AMD
KDCA 011500Z 0115/0212 18005KT 5SM -FZRAPL BR BKN015 OVC030
     FM011800 17006KT 5SM -FZRA BR BKN009 OVC020
     FM020000 18007KT 3SM BR BKN008 BKN015 OVC035
     FM020600 19006KT P6SM OVC020
     FM020900 26010KT P6SM OVC050=



000
FTUS41 KLWX 011500 AAA
TAFBWI
TAF AMD
KBWI 011500Z 0115/0218 16005KT 1SM -SN BKN008 OVC050
     FM011600 17005KT 5SM -FZRAPL BR BKN015 OVC050
     FM011800 17005KT 3SM -FZRA BR BKN009 OVC020
     FM020100 17005KT 3SM BR BKN008 OVC020
     FM020600 23005KT P6SM SCT020 OVC035
     FM020900 26006KT P6SM OVC050
     FM021400 30012G25KT P6SM BKN040=



000
FTUS41 KLWX 011500 AAA
TAFBWI
TAF AMD
KBWI 011500Z 0115/0218 16005KT 1SM -SN BKN008 OVC050
     FM011600 17005KT 5SM -FZRAPL BR BKN015 OVC050
     FM011800 17005KT 3SM -FZRA BR BKN009 OVC020
     FM020100 17005KT 3SM BR BKN008 OVC020
     FM020600 23005KT P6SM SCT020 OVC035
     FM020900 26006KT P6SM OVC050
     FM021400 30012G25KT P6SM BKN040=



000
FTUS41 KLWX 011500 AAA
TAFIAD
TAF AMD
KIAD 011500Z 0115/0218 17007KT 5SM -FZRAPL BR BKN015 OVC030
     FM011800 18007KT 4SM -FZRA BR BKN009 OVC020
     FM012300 18005KT 3SM BR BKN008 BKN015 OVC035
     FM020600 19005KT P6SM OVC020
     FM020900 26005KT P6SM OVC050
     FM021400 30012G25KT P6SM BKN040=



000
FTUS41 KLWX 011500 AAB
TAFDCA
TAF AMD
KDCA 011500Z 0115/0212 18005KT 5SM -FZRAPL BR BKN015 OVC030
     FM011800 17006KT 5SM -FZRA BR BKN009 OVC020
     FM020000 18007KT 3SM BR BKN008 BKN015 OVC035
     FM020600 19006KT P6SM OVC020
     FM020900 26010KT P6SM OVC050=



000
FTUS41 KLWX 011326 AAA
TAFDCA
TAF AMD
KDCA 011326Z 0113/0212 18005KT 3SM -PL BR OVC025
     FM011500 18005KT 2SM -FZRASNPL BR BKN015 OVC030
     FM011800 17006KT 5SM -FZRA BR BKN009 OVC020
     FM020000 18007KT 3SM BR SCT009 BKN015 OVC035
     FM020600 19006KT P6SM OVC020
     FM020900 26010KT P6SM OVC050=



000
FTUS41 KLWX 011131
TAFIAD
TAF
KIAD 011131Z 0112/0218 VRB03KT P6SM OVC080
     FM011400 15005KT 1SM -SN BR OVC025
     FM011500 17007KT 2SM -FZRASNPL BR BKN015 OVC030
     FM011800 18007KT 4SM -FZRA BR BKN009 OVC020
     FM020000 18007KT 3SM BR SCT009 BKN015 OVC035
     FM020600 19006KT P6SM OVC020
     FM020900 26006KT P6SM OVC050
     FM021400 30012G25KT P6SM BKN040=



000
FTUS41 KLWX 011131
TAFMRB
TAF
KMRB 011131Z 0112/0212 15006KT 3SM -SN BKN015 OVC025
     FM011300 17007KT 1SM -SN BKN010 OVC020
     FM011800 17007KT 2SM -FZRASNPL BR BKN010 OVC020
     FM012100 16006KT 3SM -FZRA BR BKN015 OVC020
     FM020000 VRB04KT P6SM SCT050
     FM020900 30008KT P6SM SCT050=



000
FTUS41 KLWX 011131
TAFBWI
TAF
KBWI 011131Z 0112/0218 VRB03KT P6SM OVC080
     FM011400 VRB03KT 1SM -SN BR BKN025 OVC060
     FM011600 17005KT 2SM -FZRASNPL BR BKN009 OVC030
     FM012100 17005KT 3SM -FZRA BR BKN009 OVC020
     FM020000 17006KT 3SM BR BKN009 OVC020
     FM020600 23005KT P6SM SCT020 OVC035
     FM020900 26006KT P6SM OVC050
     FM021400 30012G25KT P6SM BKN040=



000
FTUS41 KLWX 011131
TAFDCA
TAF
KDCA 011131Z 0112/0212 VRB03KT P6SM OVC080
     FM011400 VRB03KT 1SM -SN BR OVC025
     FM011500 18005KT 2SM -FZRASNPL BR BKN015 OVC030
     FM011800 17006KT 5SM -FZRA BR BKN009 OVC020
     FM020000 18007KT 3SM BR SCT009 BKN015 OVC035
     FM020600 19006KT P6SM OVC020
     FM020900 26010KT P6SM OVC050=



000
FTUS41 KLWX 011131
TAFCHO
TAF
KCHO 011131Z 0112/0212 VRB03KT 3SM -SN BR SCT020 OVC050
     FM011400 VRB03KT 2SM -FZRASNPL BR BKN009 OVC020
     FM011800 20004KT 3SM -FZRA BR BKN009 OVC020
     FM012100 18007KT 3SM BR BKN009
     FM020300 23008KT P6SM SCT015 OVC025
     FM020900 26010KT P6SM OVC050=



000
FTUS41 KLWX 011131
TAFMTN
TAF
KMTN 011131Z 0112/0212 00000KT P6SM SCT100
     FM011400 VRB03KT 3SM -SN BR BKN025 OVC060
     FM011700 18005KT 2SM -FZRASNPL BR BKN009 OVC030
     FM012100 17005KT 3SM -FZRA BR BKN009 OVC020
     FM020000 17006KT 3SM BR BKN009 OVC020
     FM020600 23005KT P6SM SCT020 OVC035
     FM020900 26010KT P6SM OVC050=



000
FTUS41 KLWX 010902 AAA
TAFDCA
TAF AMD
KDCA 010902Z 0109/0206 VRB03KT P6SM OVC080
     FM011300 VRB03KT 3SM -SN BR SCT030 OVC070
     FM011500 18005KT 2SM -FZRASNPL BR BKN015 OVC030
     FM011800 17006KT 5SM -FZRA BR BKN009 OVC020
     FM020000 18007KT 3SM BR SCT009 BKN015 OVC035=



000
FTUS41 KLWX 010902 AAA
TAFBWI
TAF AMD
KBWI 010902Z 0109/0212 VRB03KT P6SM OVC080
     FM011400 VRB03KT 3SM -SN BR BKN035 OVC060
     FM011600 17005KT 2SM -FZRASNPL BR BKN009 OVC030
     FM012100 17005KT 3SM -FZRA BR BKN009 OVC020
     FM020000 17006KT 3SM BR BKN009 OVC020
     FM020600 23005KT P6SM SCT020 OVC035=



000
FTUS41 KLWX 010902 AAA
TAFIAD
TAF AMD
KIAD 010902Z 0109/0212 VRB03KT P6SM OVC080
     FM011300 15005KT 3SM -SN BR SCT030 OVC070
     FM011500 17007KT 2SM -FZRASNPL BR BKN015 OVC030
     FM011800 18007KT 4SM -FZRA BR BKN009 OVC020
     FM020000 18007KT 3SM BR SCT009 BKN015 OVC035
     FM020600 19006KT P6SM OVC020=



000
FTUS41 KLWX 010902 AAA
TAFBWI
TAF AMD
KBWI 010902Z 0109/0212 VRB03KT P6SM OVC080
     FM011400 VRB03KT 3SM -SN BR BKN035 OVC060
     FM011600 17005KT 2SM -FZRASNPL BR BKN009 OVC030
     FM012100 17005KT 3SM -FZRA BR BKN009 OVC020
     FM020000 17006KT 3SM BR BKN009 OVC020
     FM020600 23005KT P6SM SCT020 OVC035=



000
FTUS41 KLWX 010902 AAA
TAFDCA
TAF AMD
KDCA 010902Z 0109/0206 VRB03KT P6SM OVC080
     FM011300 VRB03KT 3SM -SN BR SCT030 OVC070
     FM011500 18005KT 2SM -FZRASNPL BR BKN015 OVC030
     FM011800 17006KT 5SM -FZRA BR BKN009 OVC020
     FM020000 18007KT 3SM BR SCT009 BKN015 OVC035=



000
FTUS41 KLWX 010902 AAA
TAFIAD
TAF AMD
KIAD 010902Z 0109/0212 VRB03KT P6SM OVC080
     FM011300 15005KT 3SM -SN BR SCT030 OVC070
     FM011500 17007KT 2SM -FZRASNPL BR BKN015 OVC030
     FM011800 18007KT 4SM -FZRA BR BKN009 OVC020
     FM020000 18007KT 3SM BR SCT009 BKN015 OVC035
     FM020600 19006KT P6SM OVC020=



000
FTUS41 KLWX 010539
TAFIAD
TAF
KIAD 010539Z 0106/0212 00000KT P6SM SCT080
     FM011300 15005KT 3SM -SN BR SCT030 OVC070
     FM011500 17007KT 2SM -FZRASNPL BR BKN015 OVC030
     FM011800 18007KT 4SM -FZRA BR BKN009 OVC020
     FM020000 18007KT P6SM SCT009 OVC035
     FM020600 19006KT P6SM OVC020=



000
FTUS41 KLWX 010539
TAFIAD
TAF
KIAD 010539Z 0106/0212 00000KT P6SM SCT080
     FM011300 15005KT 3SM -SN BR SCT030 OVC070
     FM011500 17007KT 2SM -FZRASNPL BR BKN015 OVC030
     FM011800 18007KT 4SM -FZRA BR BKN009 OVC020
     FM020000 18007KT P6SM SCT009 OVC035
     FM020600 19006KT P6SM OVC020=



000
FTUS41 KLWX 010539
TAFMRB
TAF
KMRB 010539Z 0106/0206 VRB03KT P6SM BKN080
     FM011200 15006KT 2SM -SN BKN015 OVC025
     FM011800 17007KT 2SM -FZRASNPL BR BKN010 OVC020
     FM012100 16006KT 4SM -FZRA BR BKN015 OVC020
     FM020000 VRB04KT P6SM SCT050=



000
FTUS41 KLWX 010539
TAFDCA
TAF
KDCA 010539Z 0106/0206 VRB03KT P6SM SCT080
     FM011300 VRB03KT 3SM -SN BR SCT030 OVC070
     FM011500 18005KT 2SM -FZRASNPL BR BKN015 OVC030
     FM011800 17006KT 5SM -FZRA BR BKN009 OVC020
     FM020000 18007KT P6SM SCT009 OVC035=



000
FTUS41 KLWX 010539
TAFMRB
TAF
KMRB 010539Z 0106/0206 VRB03KT P6SM BKN080
     FM011200 15006KT 2SM -SN BKN015 OVC025
     FM011800 17007KT 2SM -FZRASNPL BR BKN010 OVC020
     FM012100 16006KT 4SM -FZRA BR BKN015 OVC020
     FM020000 VRB04KT P6SM SCT050=



000
FTUS41 KLWX 010539
TAFDCA
TAF
KDCA 010539Z 0106/0206 VRB03KT P6SM SCT080
     FM011300 VRB03KT 3SM -SN BR SCT030 OVC070
     FM011500 18005KT 2SM -FZRASNPL BR BKN015 OVC030
     FM011800 17006KT 5SM -FZRA BR BKN009 OVC020
     FM020000 18007KT P6SM SCT009 OVC035=



000
FTUS41 KLWX 010539
TAFBWI
TAF
KBWI 010539Z 0106/0212 00000KT P6SM SCT080
     FM011400 VRB03KT 3SM -SN BR BKN035 OVC060
     FM011600 17005KT 2SM -FZRASNPL BR BKN009 OVC030
     FM012100 17005KT 3SM -FZRA BR BKN009 OVC020
     FM020000 17006KT P6SM BKN009 OVC020
     FM020600 23005KT P6SM SCT020 OVC035=



000
FTUS41 KLWX 010539
TAFMTN
TAF
KMTN 010539Z 0106/0206 00000KT P6SM SCT100
     FM011400 VRB03KT 3SM -SN BR BKN035 OVC060
     FM011700 18005KT 2SM -FZRASNPL BR BKN009 OVC030
     FM012100 16006KT 4SM -FZRA BR BKN010 OVC020
      AMD NOT SKED TIL 011200=



000
FTUS41 KLWX 010539
TAFCHO
TAF
KCHO 010539Z 0106/0206 16003KT P6SM SCT100
     FM011100 VRB03KT 3SM -SN BR SCT020 OVC050
     FM011400 VRB03KT 2SM -FZRASNPL BR BKN009 OVC020
     FM011800 20004KT 3SM -FZRA BR BKN009 OVC020
     FM012100 18005KT P6SM BKN009
     FM020000 18005KT P6SM BKN009=



000
FTUS41 KLWX 010539
TAFBWI
TAF
KBWI 010539Z 0106/0212 00000KT P6SM SCT080
     FM011400 VRB03KT 3SM -SN BR BKN035 OVC060
     FM011600 17005KT 2SM -FZRASNPL BR BKN009 OVC030
     FM012100 17005KT 3SM -FZRA BR BKN009 OVC020
     FM020000 17006KT P6SM BKN009 OVC020
     FM020600 23005KT P6SM SCT020 OVC035=



000
FTUS41 KLWX 010539
TAFMTN
TAF
KMTN 010539Z 0106/0206 00000KT P6SM SCT100
     FM011400 VRB03KT 3SM -SN BR BKN035 OVC060
     FM011700 18005KT 2SM -FZRASNPL BR BKN009 OVC030
     FM012100 16006KT 4SM -FZRA BR BKN010 OVC020
      AMD NOT SKED TIL 011200=



000
FTUS41 KLWX 010539
TAFCHO
TAF
KCHO 010539Z 0106/0206 16003KT P6SM SCT100
     FM011100 VRB03KT 3SM -SN BR SCT020 OVC050
     FM011400 VRB03KT 2SM -FZRASNPL BR BKN009 OVC020
     FM011800 20004KT 3SM -FZRA BR BKN009 OVC020
     FM012100 18005KT P6SM BKN009
     FM020000 18005KT P6SM BKN009=



000
FTUS41 KLWX 282335
TAFBWI
TAF
KBWI 282335Z 0100/0206 13004KT P6SM SCT100
     FM010300 00000KT P6SM BKN080
     FM011300 VRB03KT 5SM -SN BR BKN035 OVC060
     FM011600 17005KT 3SM -FZRASNPL BR SCT008 OVC030
     FM012100 17005KT 3SM -FZRA BR BKN010 OVC020
     FM020000 17006KT P6SM SCT010 OVC020
     FM020400 23005KT P6SM SCT020 OVC035=



000
FTUS41 KLWX 282335
TAFMRB
TAF
KMRB 282335Z 0100/0124 16004KT P6SM BKN100
     FM010100 VRB03KT P6SM BKN080
     FM011200 15006KT 3SM -SN SCT030 OVC050
     FM011800 17007KT 2SM -FZRASNPL BR BKN015 OVC020
     FM012100 16006KT 4SM -FZRA BR BKN015 OVC020=



000
FTUS41 KLWX 282335
TAFIAD
TAF
KIAD 282335Z 0100/0206 00000KT P6SM SCT100
     FM010100 00000KT P6SM BKN080
     FM011200 15005KT 5SM -SN BR SCT030 OVC070
     FM011500 17007KT 3SM -FZRASNPL BR SCT008 OVC030
     FM011800 18007KT 4SM -FZRA BR SCT009 OVC020
     FM020000 18007KT P6SM OVC035
     FM020400 19006KT P6SM OVC020=



000
FTUS41 KLWX 282335
TAFCHO
TAF
KCHO 282335Z 0100/0124 16003KT P6SM SCT100
     FM011100 VRB03KT 5SM -SN BR SCT020 OVC050
     FM011400 VRB03KT 4SM -FZRASNPL BR SCT020 OVC035
     FM011800 20004KT 3SM -FZRA BR SCT009 OVC020
     FM012100 18005KT P6SM SCT010 OVC020=



000
FTUS41 KLWX 282335
TAFMTN
TAF
KMTN 282335Z 0100/0124 15004KT P6SM SCT100
     FM010500 00000KT P6SM BKN100
     FM011400 VRB03KT 5SM -SN BR BKN035 OVC060
     FM011700 18005KT 3SM -FZRASNPL BR SCT008 OVC030
     FM012100 16006KT 4SM -FZRA BR BKN010 OVC020
      AMD NOT SKED 0102/0112=



000
FTUS41 KLWX 282335
TAFDCA
TAF
KDCA 282335Z 0100/0124 18003KT P6SM SCT100
     FM010300 VRB03KT P6SM BKN080
     FM011200 VRB03KT 5SM -SN BR SCT030 OVC070
     FM011500 18005KT 3SM -FZRASNPL BR SCT008 OVC030
     FM011800 17006KT 5SM -FZRA BR SCT009 OVC020=



000
FTUS41 KLWX 282335
TAFDCA
TAF
KDCA 282335Z 0100/0124 18003KT P6SM SCT100
     FM010300 VRB03KT P6SM BKN080
     FM011200 VRB03KT 5SM -SN BR SCT030 OVC070
     FM011500 18005KT 3SM -FZRASNPL BR SCT008 OVC030
     FM011800 17006KT 5SM -FZRA BR SCT009 OVC020=



000
FTUS41 KLWX 282335
TAFIAD
TAF
KIAD 282335Z 0100/0206 00000KT P6SM SCT100
     FM010100 00000KT P6SM BKN080
     FM011200 15005KT 5SM -SN BR SCT030 OVC070
     FM011500 17007KT 3SM -FZRASNPL BR SCT008 OVC030
     FM011800 18007KT 4SM -FZRA BR SCT009 OVC020
     FM020000 18007KT P6SM OVC035
     FM020400 19006KT P6SM OVC020=



000
FTUS41 KLWX 282335
TAFMRB
TAF
KMRB 282335Z 0100/0124 16004KT P6SM BKN100
     FM010100 VRB03KT P6SM BKN080
     FM011200 15006KT 3SM -SN SCT030 OVC050
     FM011800 17007KT 2SM -FZRASNPL BR BKN015 OVC020
     FM012100 16006KT 4SM -FZRA BR BKN015 OVC020=



000
FTUS41 KLWX 282335
TAFCHO
TAF
KCHO 282335Z 0100/0124 16003KT P6SM SCT100
     FM011100 VRB03KT 5SM -SN BR SCT020 OVC050
     FM011400 VRB03KT 4SM -FZRASNPL BR SCT020 OVC035
     FM011800 20004KT 3SM -FZRA BR SCT009 OVC020
     FM012100 18005KT P6SM SCT010 OVC020=



000
FTUS41 KLWX 282335
TAFBWI
TAF
KBWI 282335Z 0100/0206 13004KT P6SM SCT100
     FM010300 00000KT P6SM BKN080
     FM011300 VRB03KT 5SM -SN BR BKN035 OVC060
     FM011600 17005KT 3SM -FZRASNPL BR SCT008 OVC030
     FM012100 17005KT 3SM -FZRA BR BKN010 OVC020
     FM020000 17006KT P6SM SCT010 OVC020
     FM020400 23005KT P6SM SCT020 OVC035=



000
FTUS41 KLWX 282335
TAFMTN
TAF
KMTN 282335Z 0100/0124 15004KT P6SM SCT100
     FM010500 00000KT P6SM BKN100
     FM011400 VRB03KT 5SM -SN BR BKN035 OVC060
     FM011700 18005KT 3SM -FZRASNPL BR SCT008 OVC030
     FM012100 16006KT 4SM -FZRA BR BKN010 OVC020
      AMD NOT SKED 0102/0112=



000
FTUS41 KLWX 282115 AAA
TAFDCA
TAF AMD
KDCA 282115Z 2821/0118 14003KT P6SM SCT250
     FM010600 VRB04KT P6SM OVC050
     FM011300 VRB04KT 2SM -SN BKN008 OVC050
     FM011700 17004KT 2SM -FZRAPL BKN008 OVC050=



000
FTUS41 KLWX 282115 AAA
TAFBWI
TAF AMD
KBWI 282115Z 2821/0124 10004KT P6SM SCT250
     FM010700 VRB04KT P6SM OVC050
     FM011400 VRB04KT 2SM -SN BKN008 OVC050
     FM011900 17004KT 2SM -FZRAPL BKN008 OVC050=



000
FTUS41 KLWX 282115 AAA
TAFIAD
TAF AMD
KIAD 282115Z 2821/0124 VRB03KT P6SM FEW250
     FM010600 VRB04KT P6SM OVC050
     FM011200 VRB04KT 2SM -SN BKN008 OVC050
     FM011800 17004KT 2SM -FZRAPL BKN008 OVC050=



000
FTUS41 KLWX 282115 AAA
TAFBWI
TAF AMD
KBWI 282115Z 2821/0124 10004KT P6SM SCT250
     FM010700 VRB04KT P6SM OVC050
     FM011400 VRB04KT 2SM -SN BKN008 OVC050
     FM011900 17004KT 2SM -FZRAPL BKN008 OVC050=



000
FTUS41 KLWX 282115 AAA
TAFDCA
TAF AMD
KDCA 282115Z 2821/0118 14003KT P6SM SCT250
     FM010600 VRB04KT P6SM OVC050
     FM011300 VRB04KT 2SM -SN BKN008 OVC050
     FM011700 17004KT 2SM -FZRAPL BKN008 OVC050=



000
FTUS41 KLWX 282115 AAA
TAFIAD
TAF AMD
KIAD 282115Z 2821/0124 VRB03KT P6SM FEW250
     FM010600 VRB04KT P6SM OVC050
     FM011200 VRB04KT 2SM -SN BKN008 OVC050
     FM011800 17004KT 2SM -FZRAPL BKN008 OVC050=



000
FTUS41 KLWX 281720
TAFMTN
TAF
KMTN 281720Z 2818/0118 VRB04KT P6SM BKN150
     FM010700 VRB04KT P6SM OVC050
     FM011400 VRB04KT 2SM -SN BKN008 OVC050=



000
FTUS41 KLWX 281720
TAFMTN
TAF
KMTN 281720Z 2818/0118 VRB04KT P6SM BKN150
     FM010700 VRB04KT P6SM OVC050
     FM011400 VRB04KT 2SM -SN BKN008 OVC050=



000
FTUS41 KLWX 281720
TAFIAD
TAF
KIAD 281720Z 2818/0124 VRB04KT P6SM BKN150
     FM010600 VRB04KT P6SM OVC050
     FM011200 VRB04KT 2SM -SN BKN008 OVC050
     FM011800 17004KT 2SM -FZRAPL BKN008 OVC050=



000
FTUS41 KLWX 281720
TAFBWI
TAF
KBWI 281720Z 2818/0124 VRB04KT P6SM BKN150
     FM010700 VRB04KT P6SM OVC050
     FM011400 VRB04KT 2SM -SN BKN008 OVC050
     FM011900 17004KT 2SM -FZRAPL BKN008 OVC050=



000
FTUS41 KLWX 281720
TAFDCA
TAF
KDCA 281720Z 2818/0118 10005KT P6SM BKN150
     FM010600 VRB04KT P6SM OVC050
     FM011300 VRB04KT 2SM -SN BKN008 OVC050
     FM011700 17004KT 2SM -FZRAPL BKN008 OVC050=



000
FTUS41 KLWX 281720
TAFDCA
TAF
KDCA 281720Z 2818/0118 10005KT P6SM BKN150
     FM010600 VRB04KT P6SM OVC050
     FM011300 VRB04KT 2SM -SN BKN008 OVC050
     FM011700 17004KT 2SM -FZRAPL BKN008 OVC050=



000
FTUS41 KLWX 281720
TAFCHO
TAF
KCHO 281720Z 2818/0118 VRB04KT P6SM BKN150
     FM282200 VRB04KT P6SM BKN025 BKN150
     FM011100 VRB04KT 2SM -SN BKN008 OVC050
     FM011500 VRB04KT 2SM -FZRAPL BKN008 OVC050=



000
FTUS41 KLWX 281720
TAFMRB
TAF
KMRB 281720Z 2818/0118 VRB03KT P6SM BKN150
     FM010400 VRB04KT P6SM OVC050
     FM010900 VRB04KT 2SM -SN BKN008 OVC050=



000
FTUS41 KLWX 281720
TAFIAD
TAF
KIAD 281720Z 2818/0124 VRB04KT P6SM BKN150
     FM010600 VRB04KT P6SM OVC050
     FM011200 VRB04KT 2SM -SN BKN008 OVC050
     FM011800 17004KT 2SM -FZRAPL BKN008 OVC050=



000
FTUS41 KLWX 281720
TAFMRB
TAF
KMRB 281720Z 2818/0118 VRB03KT P6SM BKN150
     FM010400 VRB04KT P6SM OVC050
     FM010900 VRB04KT 2SM -SN BKN008 OVC050=



000
FTUS41 KLWX 281720
TAFBWI
TAF
KBWI 281720Z 2818/0124 VRB04KT P6SM BKN150
     FM010700 VRB04KT P6SM OVC050
     FM011400 VRB04KT 2SM -SN BKN008 OVC050
     FM011900 17004KT 2SM -FZRAPL BKN008 OVC050=



000
FTUS41 KLWX 281720
TAFCHO
TAF
KCHO 281720Z 2818/0118 VRB04KT P6SM BKN150
     FM282200 VRB04KT P6SM BKN025 BKN150
     FM011100 VRB04KT 2SM -SN BKN008 OVC050
     FM011500 VRB04KT 2SM -FZRAPL BKN008 OVC050=



000
FTUS41 KLWX 281504 AAA
TAFBWI
TAF AMD
KBWI 281504Z 2815/0118 03004KT P6SM SCT150
     FM010700 VRB04KT P6SM OVC050=



000
FTUS41 KLWX 281504 AAA
TAFDCA
TAF AMD
KDCA 281504Z 2815/0112 05005KT P6SM BKN150
     FM010600 VRB04KT P6SM OVC050=



000
FTUS41 KLWX 281504 AAA
TAFIAD
TAF AMD
KIAD 281504Z 2815/0118 05004KT P6SM BKN150
     FM010600 VRB04KT P6SM OVC050
     FM011100 VRB04KT 3SM -SN OVC050=



000
FTUS41 KLWX 281137
TAFMTN
TAF
KMTN 281137Z 2812/0112 33010KT P6SM FEW050
     FM281800 05004KT P6SM SCT150
     FM010700 VRB04KT P6SM OVC050=



000
FTUS41 KLWX 281137
TAFBWI
TAF
KBWI 281137Z 2812/0118 33010KT P6SM FEW050
     FM281800 05004KT P6SM SCT150
     FM010700 VRB04KT P6SM OVC050=



000
FTUS41 KLWX 281137
TAFDCA
TAF
KDCA 281137Z 2812/0112 35008KT P6SM SCT150
     FM281900 05005KT P6SM SCT150
     FM010600 VRB04KT P6SM OVC050=



000
FTUS41 KLWX 281137
TAFIAD
TAF
KIAD 281137Z 2812/0118 34010KT P6SM FEW150
     FM281800 05004KT P6SM SCT150
     FM010600 VRB04KT P6SM OVC050
     FM011100 VRB04KT 3SM -SN OVC050=



000
FTUS41 KLWX 281137
TAFCHO
TAF
KCHO 281137Z 2812/0112 05006KT P6SM SCT150
     FM281700 13004KT P6SM SCT030 BKN150
     FM010200 VRB04KT P6SM BKN025
     FM010800 VRB04KT 3SM BR SCT015 BKN025=



000
FTUS41 KLWX 281137
TAFMRB
TAF
KMRB 281137Z 2812/0112 30010KT P6SM SCT150
     FM281800 04005KT P6SM SCT150
     FM010400 VRB04KT P6SM OVC050
     FM010800 VRB04KT 3SM -SN OVC025=



    US Dept of Commerce
    National Oceanic and Atmospheric Administration
    National Weather Service
    1325 East West Highway
    Silver Spring, MD 20910
    Page Author: NWS Internet Services Team
Disclaimer
Information Quality
Credits
Glossary
Privacy Policy
Freedom of Information Act (FOIA)
About Us
Career Opportunities